Alvena, Canada
Current Conditions -  °F | °C
As of 2:00 AM on Saturday 25 Oct 2014 (Local Time) from CYXE Reporting Station
Clear Clear  
Wind Chill: 15°   Ceiling: Unl
Heat Index: 25°   Visibility: 15mi
Dew Point: 23°   Wind: 9mph
Humidity: 93%   Direction: 240°WSW
Pressure: 30"   Gusts: NA
Location:  52.52°N, 106.02°W
Report Text: CYXE 250800Z 24008KT 15SM SKC M04/M05 A3000 RMK SLP181
Loading
Personal Weather Stations






























Interactive Weather Map
Tropical Storm Tracking
New forecast layout! Learn more

10-Day Weather Forecast

Advertisements
Track Severe Weather on mobile